createdAt,value
2022-10-28T00:01:01.810Z,6.43
2022-10-28T00:03:28.285Z,7.73
2022-10-28T00:06:00.559Z,5.60
2022-10-28T00:08:28.075Z,6.73
2022-10-28T00:11:01.356Z,8.87
2022-10-28T00:13:27.803Z,8.57
2022-10-28T00:15:54.317Z,8.43
2022-10-28T00:18:20.812Z,7.90
2022-10-28T00:20:47.368Z,6.93
2022-10-28T00:23:13.835Z,7.60
2022-10-28T00:25:40.346Z,5.90
2022-10-28T00:28:06.811Z,7.33
2022-10-28T00:30:33.503Z,7.30
2022-10-28T00:33:00.104Z,7.40
2022-10-28T00:35:26.559Z,7.40
2022-10-28T00:37:53.983Z,7.10
2022-10-28T00:40:20.432Z,8.37
2022-10-28T00:42:46.940Z,6.27
2022-10-28T00:45:13.444Z,8.67
2022-10-28T00:47:43.113Z,7.80
2022-10-28T00:50:09.571Z,8.80
2022-10-28T00:52:36.069Z,7.60
2022-10-28T00:55:03.111Z,8.07
2022-10-28T00:57:33.590Z,8.93
2022-10-28T01:00:01.602Z,8.93
2022-10-28T01:02:28.301Z,7.33
2022-10-28T01:04:54.782Z,7.20
2022-10-28T01:07:22.099Z,9.37
2022-10-28T01:09:48.656Z,8.63
2022-10-28T01:12:18.149Z,8.90
2022-10-28T01:15:09.158Z,10.93
2022-10-28T01:17:54.720Z,9.30
2022-10-28T01:20:27.515Z,7.30
2022-10-28T01:23:00.001Z,7.40
2022-10-28T01:25:36.358Z,7.13
2022-10-28T01:28:02.812Z,6.90
2022-10-28T01:30:34.237Z,6.70
2022-10-28T01:33:08.194Z,7.13
2022-10-28T01:35:52.853Z,8.37
2022-10-28T01:38:32.413Z,6.10
2022-10-28T01:41:09.390Z,4.40
2022-10-28T01:43:41.325Z,7.30
2022-10-28T01:46:07.753Z,6.77
2022-10-28T01:48:39.411Z,7.07
2022-10-28T01:51:24.895Z,7.77
2022-10-28T01:53:53.229Z,6.73
2022-10-28T01:56:23.524Z,6.20
2022-10-28T01:58:50.507Z,7.43
2022-10-28T02:01:17.769Z,8.47
2022-10-28T02:03:45.738Z,8.63
2022-10-28T02:06:17.182Z,8.73
2022-10-28T02:08:57.488Z,8.00
2022-10-28T02:11:23.923Z,7.27
2022-10-28T02:14:09.413Z,7.97
2022-10-28T02:16:46.779Z,6.40
2022-10-28T02:19:23.487Z,7.93
2022-10-28T02:21:56.721Z,7.17
2022-10-28T02:24:28.566Z,8.63
2022-10-28T02:27:00.348Z,9.40
2022-10-28T02:29:26.823Z,6.23
2022-10-28T02:31:58.666Z,9.00
2022-10-28T02:34:28.549Z,7.80
2022-10-28T02:36:57.797Z,9.37
2022-10-28T02:39:27.963Z,6.90
2022-10-28T02:42:00.143Z,9.90
2022-10-28T02:44:29.495Z,8.03
2022-10-28T02:46:58.022Z,6.87
2022-10-28T02:49:25.518Z,7.27
2022-10-28T02:51:54.413Z,5.93
2022-10-28T02:54:24.042Z,7.43
2022-10-28T02:57:02.159Z,6.40
2022-10-28T02:59:29.024Z,6.40
2022-10-28T03:01:56.237Z,5.80
2022-10-28T03:04:22.879Z,6.57
2022-10-28T03:06:49.457Z,6.67
2022-10-28T03:09:15.921Z,7.53
2022-10-28T03:11:42.411Z,6.17
2022-10-28T03:14:10.767Z,7.27
2022-10-28T03:16:39.800Z,7.53
2022-10-28T03:19:06.318Z,6.40
2022-10-28T03:21:33.024Z,6.57
2022-10-28T03:23:59.579Z,6.70
2022-10-28T03:26:26.082Z,6.47
2022-10-28T03:28:52.574Z,9.10
2022-10-28T03:31:19.138Z,7.37
2022-10-28T03:33:45.698Z,7.20
2022-10-28T03:36:12.255Z,7.50
2022-10-28T03:38:38.987Z,7.10
2022-10-28T03:41:05.613Z,6.80
2022-10-28T03:43:32.099Z,9.30
2022-10-28T03:45:58.594Z,7.53
2022-10-28T03:48:25.124Z,8.20
2022-10-28T03:50:55.104Z,8.47
2022-10-28T03:53:21.959Z,7.90
2022-10-28T03:56:07.042Z,8.10
2022-10-28T03:58:36.130Z,7.37
2022-10-28T04:01:05.373Z,9.10
2022-10-28T04:03:31.880Z,8.67
2022-10-28T04:05:58.445Z,9.77
2022-10-28T04:08:24.986Z,8.63
2022-10-28T04:10:51.500Z,7.60
2022-10-28T04:13:18.072Z,8.77
2022-10-28T04:15:44.607Z,8.80
2022-10-28T04:18:12.134Z,8.97
2022-10-28T04:20:38.900Z,7.30
2022-10-28T04:23:05.384Z,10.90
2022-10-28T04:25:31.900Z,9.50
2022-10-28T04:27:58.462Z,8.50
2022-10-28T04:30:24.946Z,9.07
2022-10-28T04:32:51.533Z,7.67
2022-10-28T04:35:18.111Z,10.70
2022-10-28T04:37:44.710Z,11.80
2022-10-28T04:40:11.357Z,10.50
2022-10-28T04:42:37.852Z,9.10
2022-10-28T04:45:04.714Z,8.30
2022-10-28T04:47:31.339Z,7.73
2022-10-28T04:49:57.987Z,8.83
2022-10-28T04:52:24.507Z,9.03
2022-10-28T04:54:51.220Z,8.07
2022-10-28T04:57:17.762Z,9.30
2022-10-28T04:59:44.320Z,8.50
2022-10-28T05:02:10.951Z,9.97
2022-10-28T05:04:37.543Z,10.90
2022-10-28T05:07:04.039Z,10.37
2022-10-28T05:09:30.503Z,9.40
2022-10-28T05:11:56.987Z,9.20
2022-10-28T05:14:23.555Z,10.37
2022-10-28T05:16:50.015Z,10.57
2022-10-28T05:19:16.588Z,9.00
2022-10-28T05:21:43.043Z,9.43
2022-10-28T05:24:09.598Z,8.67
2022-10-28T05:26:36.073Z,11.23
2022-10-28T05:29:02.560Z,11.07
2022-10-28T05:31:29.066Z,9.23
2022-10-28T05:33:55.747Z,8.57
2022-10-28T05:36:22.508Z,8.37
2022-10-28T05:38:49.650Z,9.03
2022-10-28T05:41:16.163Z,7.80
2022-10-28T05:43:42.683Z,8.67
2022-10-28T05:46:09.639Z,8.47
2022-10-28T05:48:36.106Z,8.90
2022-10-28T05:51:02.638Z,10.30
2022-10-28T05:53:29.160Z,9.43
2022-10-28T05:55:55.693Z,8.20
2022-10-28T05:58:22.225Z,9.63
2022-10-28T06:00:48.711Z,9.97
2022-10-28T06:03:15.231Z,9.80
2022-10-28T06:05:45.674Z,10.07
2022-10-28T06:08:12.972Z,10.30
2022-10-28T06:10:39.636Z,10.97
2022-10-28T06:13:04.898Z,10.93
2022-10-28T06:15:31.375Z,12.00
2022-10-28T06:17:57.907Z,10.40
2022-10-28T06:20:24.621Z,11.73
2022-10-28T06:22:52.221Z,10.77
2022-10-28T06:25:19.718Z,11.13
2022-10-28T06:27:53.330Z,10.80
2022-10-28T06:30:20.320Z,11.17
2022-10-28T06:32:46.837Z,11.57
2022-10-28T06:35:13.430Z,11.23
2022-10-28T06:37:39.972Z,12.13
2022-10-28T06:40:08.098Z,12.37
2022-10-28T06:42:34.693Z,12.03
2022-10-28T06:45:01.329Z,10.50
2022-10-28T06:47:29.432Z,12.30
2022-10-28T06:49:57.109Z,11.90
2022-10-28T06:52:23.667Z,12.57
2022-10-28T06:54:50.136Z,11.27
2022-10-28T06:57:16.671Z,11.00
2022-10-28T06:59:43.175Z,13.37
2022-10-28T07:02:10.888Z,10.77
2022-10-28T07:04:37.601Z,13.20
2022-10-28T07:07:04.088Z,13.20
2022-10-28T07:09:30.637Z,11.40
2022-10-28T07:11:59.734Z,11.23
2022-10-28T07:14:30.274Z,12.20
2022-10-28T07:16:56.742Z,11.47
2022-10-28T07:19:23.245Z,13.07
2022-10-28T07:21:49.723Z,10.70
2022-10-28T07:24:16.224Z,11.43
2022-10-28T07:26:42.706Z,12.60
2022-10-28T07:29:22.980Z,10.80
2022-10-28T07:31:49.555Z,12.00
2022-10-28T07:34:16.174Z,12.20
2022-10-28T07:36:42.755Z,13.17
2022-10-28T07:39:09.721Z,11.90
2022-10-28T07:41:37.160Z,12.00
2022-10-28T07:44:03.708Z,11.73
2022-10-28T07:46:30.741Z,12.60
2022-10-28T07:48:57.237Z,13.97
2022-10-28T07:51:23.769Z,12.70
2022-10-28T07:53:50.237Z,12.67
2022-10-28T07:56:16.745Z,11.90
2022-10-28T07:58:43.824Z,11.67
2022-10-28T08:01:13.500Z,11.40
2022-10-28T08:03:40.127Z,11.10
2022-10-28T08:06:09.967Z,11.60
2022-10-28T08:08:37.284Z,11.00
2022-10-28T08:11:10.198Z,12.37
2022-10-28T08:13:40.176Z,10.57
2022-10-28T08:16:08.061Z,11.30
2022-10-28T08:18:35.130Z,10.00
2022-10-28T08:21:02.371Z,11.00
2022-10-28T08:23:29.434Z,10.77
2022-10-28T08:25:56.641Z,9.87
2022-10-28T08:28:23.982Z,8.80
2022-10-28T08:31:04.073Z,9.90
2022-10-28T08:33:35.403Z,8.00
2022-10-28T08:36:01.902Z,9.23
2022-10-28T08:38:28.441Z,9.33
2022-10-28T08:40:54.918Z,8.40
2022-10-28T08:43:34.916Z,8.70
2022-10-28T08:46:14.134Z,10.90
2022-10-28T08:48:41.617Z,11.17
2022-10-28T08:51:15.057Z,8.87
2022-10-28T08:53:44.872Z,7.17
2022-10-28T08:56:15.390Z,8.63
2022-10-28T08:58:43.748Z,7.90
2022-10-28T09:01:15.855Z,7.63
2022-10-28T09:03:43.807Z,6.93
2022-10-28T09:06:10.954Z,6.90
2022-10-28T09:08:40.237Z,6.23
2022-10-28T09:11:26.485Z,6.80
2022-10-28T09:13:54.411Z,7.73
2022-10-28T09:16:40.452Z,6.73
2022-10-28T09:19:14.887Z,7.60
2022-10-28T09:21:47.389Z,7.13
2022-10-28T09:24:17.025Z,6.67
2022-10-28T09:26:55.725Z,7.93
2022-10-28T09:29:26.360Z,6.97
2022-10-28T09:31:52.836Z,7.43
2022-10-28T09:34:40.320Z,7.17
2022-10-28T09:37:15.217Z,6.53
2022-10-28T09:39:43.079Z,6.10
2022-10-28T09:42:13.883Z,6.73
2022-10-28T09:44:45.932Z,7.87
2022-10-28T09:47:15.335Z,5.90
2022-10-28T09:49:43.131Z,7.30
2022-10-28T09:52:15.366Z,6.10
2022-10-28T09:54:45.441Z,8.10
2022-10-28T09:57:14.947Z,8.43
2022-10-28T09:59:43.989Z,7.97
2022-10-28T10:02:25.797Z,7.60
2022-10-28T10:04:53.255Z,7.90
2022-10-28T10:07:28.931Z,7.80
2022-10-28T10:09:55.913Z,6.43
2022-10-28T10:12:22.546Z,6.13
2022-10-28T10:14:50.234Z,6.73
2022-10-28T10:17:21.595Z,7.60
2022-10-28T10:20:00.731Z,7.20
2022-10-28T10:22:31.566Z,7.90
2022-10-28T10:24:58.282Z,8.90
2022-10-28T10:27:25.993Z,6.80
2022-10-28T10:29:53.001Z,7.03
2022-10-28T10:32:22.706Z,7.10
2022-10-28T10:34:56.675Z,6.53
2022-10-28T10:37:23.583Z,7.33
2022-10-28T10:40:02.570Z,7.23
2022-10-28T10:42:29.168Z,6.23
2022-10-28T10:45:19.056Z,7.40
2022-10-28T10:47:45.606Z,7.07
2022-10-28T10:50:22.177Z,6.40
2022-10-28T10:52:50.326Z,6.50
2022-10-28T10:55:40.110Z,5.47
2022-10-28T10:58:14.751Z,6.10
2022-10-28T11:00:45.933Z,6.00
2022-10-28T11:03:17.840Z,6.20
2022-10-28T11:05:55.137Z,4.90
2022-10-28T11:08:42.606Z,4.90
2022-10-28T11:11:12.851Z,4.80
2022-10-28T11:13:42.370Z,5.97
2022-10-28T11:16:23.348Z,4.80
2022-10-28T11:18:51.233Z,4.60
2022-10-28T11:21:36.965Z,5.30
2022-10-28T11:24:03.604Z,4.93
2022-10-28T11:26:33.508Z,4.17
2022-10-28T11:29:11.726Z,5.07
2022-10-28T11:31:44.715Z,4.50
2022-10-28T11:34:20.413Z,4.90
2022-10-28T11:37:09.467Z,4.60
2022-10-28T11:39:45.590Z,6.17
2022-10-28T11:42:21.363Z,5.43
2022-10-28T11:44:50.945Z,4.27
2022-10-28T11:47:32.774Z,3.40
2022-10-28T11:50:17.138Z,3.80
2022-10-28T11:52:52.816Z,5.57
2022-10-28T11:55:25.412Z,4.03
2022-10-28T11:57:52.173Z,3.87
2022-10-28T12:00:37.994Z,3.50
2022-10-28T12:03:27.176Z,4.20
2022-10-28T12:05:56.017Z,3.83
2022-10-28T12:08:28.883Z,4.40
2022-10-28T12:11:13.743Z,3.60
2022-10-28T12:13:45.837Z,4.63
2022-10-28T12:16:16.036Z,4.80
2022-10-28T12:18:47.455Z,5.10
2022-10-28T12:21:17.310Z,3.60
2022-10-28T12:23:44.895Z,5.33
2022-10-28T12:26:13.838Z,5.07
2022-10-28T12:28:51.473Z,5.00
2022-10-28T12:31:26.375Z,4.40
2022-10-28T12:33:55.655Z,4.37
2022-10-28T12:36:28.297Z,4.80
2022-10-28T12:39:01.874Z,4.80
2022-10-28T12:41:44.710Z,5.13
2022-10-28T12:44:14.324Z,7.37
2022-10-28T12:49:23.605Z,4.60
2022-10-28T12:51:50.482Z,5.60
2022-10-28T12:54:21.613Z,4.47
2022-10-28T12:56:55.088Z,5.03
2022-10-28T12:59:27.900Z,4.57
2022-10-28T13:01:54.970Z,4.80
2022-10-28T13:04:21.697Z,5.70
2022-10-28T13:07:00.930Z,5.80
2022-10-28T13:09:45.101Z,4.70
2022-10-28T13:12:20.692Z,5.13
2022-10-28T13:14:50.692Z,4.70
2022-10-28T13:17:20.417Z,4.53
2022-10-28T13:20:01.209Z,4.40
2022-10-28T13:22:46.380Z,3.80
2022-10-28T13:25:28.288Z,4.70
2022-10-28T13:27:56.653Z,4.50
2022-10-28T13:30:23.867Z,4.77
2022-10-28T13:32:59.537Z,6.27
2022-10-28T13:35:29.332Z,5.07
2022-10-28T13:37:56.488Z,5.33
2022-10-28T13:40:43.251Z,5.80
2022-10-28T13:43:18.215Z,5.10
2022-10-28T13:45:44.768Z,5.03
2022-10-28T13:48:29.672Z,5.00
2022-10-28T13:51:11.503Z,4.50
2022-10-28T13:53:38.312Z,4.43
2022-10-28T13:56:17.179Z,4.80
2022-10-28T13:58:54.871Z,6.60
2022-10-28T14:01:40.460Z,4.90
2022-10-28T14:04:21.111Z,6.50
2022-10-28T14:06:48.034Z,5.20
2022-10-28T14:09:22.077Z,5.20
2022-10-28T14:12:04.357Z,5.60
2022-10-28T14:14:31.451Z,7.70
2022-10-28T14:16:58.228Z,5.10
2022-10-28T14:19:24.914Z,5.50
2022-10-28T14:22:01.546Z,4.70
2022-10-28T14:24:33.565Z,6.03
2022-10-28T14:27:09.844Z,5.80
2022-10-28T14:29:45.610Z,5.90
2022-10-28T14:32:30.733Z,5.53
2022-10-28T14:35:15.890Z,5.47
2022-10-28T14:37:51.931Z,5.10
2022-10-28T14:40:23.533Z,5.17
2022-10-28T14:43:10.334Z,6.50
2022-10-28T14:45:58.825Z,5.10
2022-10-28T14:48:34.684Z,5.27
2022-10-28T14:51:01.953Z,5.27
2022-10-28T14:53:35.503Z,5.67
2022-10-28T14:56:20.129Z,6.20
2022-10-28T14:58:47.263Z,6.07
2022-10-28T15:01:17.170Z,6.23
2022-10-28T15:03:47.108Z,6.57
2022-10-28T15:06:33.136Z,4.60
2022-10-28T15:09:04.726Z,5.63
2022-10-28T15:11:31.837Z,7.83
2022-10-28T15:14:00.648Z,5.93
2022-10-28T15:16:27.320Z,5.60
2022-10-28T15:18:54.297Z,7.33
2022-10-28T15:21:22.260Z,7.63
2022-10-28T15:24:09.324Z,6.73
2022-10-28T15:26:36.060Z,5.40
2022-10-28T15:29:03.533Z,6.83
2022-10-28T15:31:30.294Z,7.83
2022-10-28T15:33:57.118Z,11.77
2022-10-28T15:36:27.144Z,10.03
2022-10-28T15:39:07.685Z,9.33
2022-10-28T15:41:44.810Z,7.57
2022-10-28T15:44:23.671Z,7.53
2022-10-28T15:46:50.682Z,6.97
2022-10-28T15:49:37.544Z,6.10
2022-10-28T15:52:16.498Z,7.57
2022-10-28T15:54:53.688Z,6.10
2022-10-28T15:57:21.677Z,6.40
2022-10-28T15:59:48.575Z,7.20
2022-10-28T16:02:34.341Z,5.17
2022-10-28T16:05:01.154Z,6.80
2022-10-28T16:07:27.777Z,6.40
2022-10-28T16:09:54.473Z,7.07
2022-10-28T16:12:22.518Z,7.10
2022-10-28T16:14:56.784Z,7.23
2022-10-28T16:17:24.850Z,7.30
2022-10-28T16:19:57.094Z,8.17
2022-10-28T16:22:24.941Z,7.00
2022-10-28T16:24:52.573Z,6.30
2022-10-28T16:27:27.161Z,8.87
2022-10-28T16:29:53.989Z,6.47
2022-10-28T16:32:26.012Z,7.27
2022-10-28T16:34:52.782Z,10.33
2022-10-28T16:37:34.219Z,9.73
2022-10-28T16:40:01.029Z,9.73
2022-10-28T16:42:27.657Z,7.83
2022-10-28T16:44:54.334Z,6.43
2022-10-28T16:47:21.723Z,7.37
2022-10-28T16:49:54.502Z,7.03
2022-10-28T16:52:28.860Z,8.20
2022-10-28T16:54:56.012Z,7.60
2022-10-28T16:59:50.971Z,6.40
2022-10-28T17:02:30.145Z,9.27
2022-10-28T17:04:57.479Z,7.20
2022-10-28T17:07:24.693Z,7.60
2022-10-28T17:09:54.408Z,6.90
2022-10-28T17:12:22.216Z,8.33
2022-10-28T17:14:48.837Z,7.40
2022-10-28T17:17:15.459Z,9.43
2022-10-28T17:19:42.209Z,8.97
2022-10-28T17:22:10.298Z,6.97
2022-10-28T17:24:37.177Z,8.40
2022-10-28T17:27:04.139Z,9.30
2022-10-28T17:29:31.349Z,8.80
2022-10-28T17:31:58.002Z,9.60
2022-10-28T17:34:24.590Z,8.03
2022-10-28T17:36:51.260Z,8.30
2022-10-28T17:39:23.315Z,9.43
2022-10-28T17:41:52.484Z,8.13
2022-10-28T17:44:19.054Z,9.10
2022-10-28T17:46:47.735Z,9.47
2022-10-28T17:49:14.548Z,7.83
2022-10-28T17:51:41.126Z,8.27
2022-10-28T17:54:07.864Z,11.03
2022-10-28T17:56:34.934Z,29.83
2022-10-28T17:59:02.107Z,24.30
2022-10-28T18:01:32.252Z,32.23
2022-10-28T18:03:59.041Z,13.20
2022-10-28T18:06:26.079Z,13.13
2022-10-28T18:08:52.772Z,13.60
2022-10-28T18:11:22.474Z,9.20
2022-10-28T18:13:51.358Z,8.57
2022-10-28T18:16:19.444Z,10.10
2022-10-28T18:18:46.018Z,9.63
2022-10-28T18:21:13.118Z,11.33
2022-10-28T18:23:41.225Z,8.77
2022-10-28T18:26:13.355Z,10.90
2022-10-28T18:28:41.024Z,9.50
2022-10-28T18:31:09.960Z,8.67
2022-10-28T18:33:36.648Z,9.33
2022-10-28T18:36:07.819Z,9.80
2022-10-28T18:38:34.402Z,9.73
2022-10-28T18:41:01.049Z,8.37
2022-10-28T18:43:28.863Z,9.43
2022-10-28T18:46:00.104Z,8.40
2022-10-28T18:48:26.967Z,9.90
2022-10-28T18:51:00.134Z,8.60
2022-10-28T18:53:27.063Z,10.20
2022-10-28T18:55:58.995Z,9.43
2022-10-28T18:58:26.148Z,11.73
2022-10-28T19:00:53.503Z,8.63
2022-10-28T19:03:21.775Z,9.67
2022-10-28T19:05:48.528Z,10.70
2022-10-28T19:08:15.445Z,10.13
2022-10-28T19:10:42.478Z,8.60
2022-10-28T19:13:09.052Z,10.03
2022-10-28T19:15:40.132Z,9.17
2022-10-28T19:18:06.934Z,9.27
2022-10-28T19:20:33.615Z,9.80
2022-10-28T19:23:01.804Z,10.60
2022-10-28T19:25:28.592Z,9.10
2022-10-28T19:27:55.153Z,9.43
2022-10-28T19:30:21.785Z,10.03
2022-10-28T19:32:48.398Z,10.77
2022-10-28T19:35:15.623Z,10.57
2022-10-28T19:37:42.354Z,9.37
2022-10-28T19:40:09.422Z,11.00
2022-10-28T19:42:38.356Z,10.83
2022-10-28T19:45:05.555Z,10.93
2022-10-28T19:47:32.350Z,9.90
2022-10-28T19:49:58.963Z,9.73
2022-10-28T19:52:25.833Z,10.83
2022-10-28T19:54:52.853Z,10.70
2022-10-28T19:57:19.943Z,9.80
2022-10-28T19:59:46.604Z,10.10
2022-10-28T20:02:13.439Z,11.40
2022-10-28T20:04:40.184Z,9.50
2022-10-28T20:07:06.734Z,8.87
2022-10-28T20:09:33.299Z,9.83
2022-10-28T20:12:01.884Z,10.27
2022-10-28T20:14:29.060Z,9.20
2022-10-28T20:16:55.756Z,9.30
2022-10-28T20:19:23.344Z,9.90
2022-10-28T20:21:50.783Z,9.57
2022-10-28T20:24:17.389Z,8.40
2022-10-28T20:26:43.962Z,9.47
2022-10-28T20:29:10.544Z,9.40
2022-10-28T20:31:39.012Z,9.73
2022-10-28T20:34:05.738Z,10.77
2022-10-28T20:36:33.370Z,8.90
2022-10-28T20:39:05.160Z,11.13
2022-10-28T20:41:32.977Z,9.60
2022-10-28T20:43:59.992Z,8.13
2022-10-28T20:46:26.863Z,9.20
2022-10-28T20:48:56.839Z,9.33
2022-10-28T20:51:24.539Z,10.53
2022-10-28T20:53:51.399Z,8.80
2022-10-28T20:56:19.968Z,10.10
2022-10-28T20:58:46.930Z,9.80
2022-10-28T21:01:17.775Z,8.77
2022-10-28T21:03:44.974Z,7.53
2022-10-28T21:08:38.657Z,10.80
2022-10-28T21:11:06.469Z,10.67
2022-10-28T21:13:33.345Z,10.43
2022-10-28T21:16:03.331Z,9.20
2022-10-28T21:18:29.863Z,8.73
2022-10-28T21:20:57.298Z,8.97
2022-10-28T21:23:24.152Z,7.47
2022-10-28T21:25:57.987Z,8.70
2022-10-28T21:28:24.671Z,7.30
2022-10-28T21:30:51.234Z,9.07
2022-10-28T21:33:18.947Z,9.20
2022-10-28T21:35:53.952Z,8.50
2022-10-28T21:38:20.493Z,9.90
2022-10-28T21:40:47.071Z,10.13
2022-10-28T21:43:13.627Z,9.20
2022-10-28T21:45:40.143Z,8.70
2022-10-28T21:48:06.787Z,9.03
2022-10-28T21:50:33.263Z,8.50
2022-10-28T21:53:03.844Z,8.13
2022-10-28T21:55:45.822Z,9.30
2022-10-28T21:58:13.594Z,12.43
2022-10-28T22:00:40.123Z,10.37
2022-10-28T22:03:06.657Z,10.37
2022-10-28T22:05:33.212Z,7.90
2022-10-28T22:08:02.995Z,8.10
2022-10-28T22:10:31.639Z,9.50
2022-10-28T22:12:58.164Z,8.87
2022-10-28T22:15:24.726Z,9.60
2022-10-28T22:17:51.229Z,7.97
2022-10-28T22:20:18.046Z,10.37
2022-10-28T22:22:44.642Z,8.40
2022-10-28T22:25:11.182Z,9.67
2022-10-28T22:27:37.797Z,9.20
2022-10-28T22:30:04.772Z,8.40
2022-10-28T22:32:31.402Z,8.50
2022-10-28T22:34:57.967Z,10.70
2022-10-28T22:37:24.470Z,9.17
2022-10-28T22:39:50.999Z,10.23
2022-10-28T22:42:17.530Z,9.20
2022-10-28T22:44:44.014Z,9.30
2022-10-28T22:47:10.557Z,8.60
2022-10-28T22:49:37.134Z,9.07
2022-10-28T22:52:03.735Z,10.03
2022-10-28T22:54:30.356Z,9.00
2022-10-28T22:56:56.992Z,9.60
2022-10-28T22:59:23.814Z,9.67
2022-10-28T23:01:51.985Z,10.10
2022-10-28T23:04:18.637Z,9.60
2022-10-28T23:06:45.159Z,10.13
2022-10-28T23:09:11.721Z,9.43
2022-10-28T23:11:38.353Z,9.10
2022-10-28T23:14:04.979Z,10.07
2022-10-28T23:16:31.468Z,10.20
2022-10-28T23:19:00.183Z,10.33
2022-10-28T23:21:26.811Z,12.13
2022-10-28T23:23:57.511Z,9.83
2022-10-28T23:26:24.582Z,9.37
2022-10-28T23:28:52.669Z,9.83
2022-10-28T23:31:19.554Z,9.30
2022-10-28T23:33:46.387Z,10.20
2022-10-28T23:36:13.698Z,10.00
2022-10-28T23:38:40.522Z,8.67
2022-10-28T23:41:08.598Z,8.90
2022-10-28T23:43:35.162Z,9.43
2022-10-28T23:46:01.848Z,10.17
2022-10-28T23:48:28.844Z,8.13
2022-10-28T23:50:56.690Z,10.10
2022-10-28T23:53:23.498Z,10.33
2022-10-28T23:55:50.603Z,11.30
2022-10-28T23:58:17.904Z,10.07
